sensor_id;sensor_type;location;lat;lon;timestamp;pressure;altitude;pressure_sealevel;temperature;humidity
36932;BME280;22847;42.654;23.370;2022-08-11T00:00:19;94813.44;;;23.89;56.43
36932;BME280;22847;42.654;23.370;2022-08-11T00:02:50;94749.03;;;23.44;56.88
36932;BME280;22847;42.654;23.370;2022-08-11T00:05:18;94832.59;;;23.79;57.01
36932;BME280;22847;42.654;23.370;2022-08-11T00:07:49;94592.94;;;22.40;57.08
36932;BME280;22847;42.654;23.370;2022-08-11T00:10:18;94811.44;;;23.48;57.51
36932;BME280;22847;42.654;23.370;2022-08-11T00:12:57;94731.19;;;23.26;57.30
36932;BME280;22847;42.654;23.370;2022-08-11T00:15:24;94827.66;;;23.83;56.74
36932;BME280;22847;42.654;23.370;2022-08-11T00:18:00;94802.34;;;23.92;56.55
36932;BME280;22847;42.654;23.370;2022-08-11T00:20:31;94838.38;;;23.94;56.37
36932;BME280;22847;42.654;23.370;2022-08-11T00:23:23;94811.44;;;24.02;56.27
36932;BME280;22847;42.654;23.370;2022-08-11T00:25:49;94831.38;;;23.82;56.45
36932;BME280;22847;42.654;23.370;2022-08-11T00:28:30;94770.47;;;23.85;56.06
36932;BME280;22847;42.654;23.370;2022-08-11T00:30:58;94771.44;;;23.91;55.95
36932;BME280;22847;42.654;23.370;2022-08-11T00:33:36;94820.97;;;24.10;56.08
36932;BME280;22847;42.654;23.370;2022-08-11T00:36:03;94798.94;;;24.03;56.29
36932;BME280;22847;42.654;23.370;2022-08-11T00:38:33;94812.63;;;24.07;56.16
36932;BME280;22847;42.654;23.370;2022-08-11T00:41:35;94601.78;;;22.52;57.14
36932;BME280;22847;42.654;23.370;2022-08-11T00:47:02;94595.78;;;22.63;56.81
36932;BME280;22847;42.654;23.370;2022-08-11T00:49:40;94784.25;;;23.39;58.07
36932;BME280;22847;42.654;23.370;2022-08-11T01:00:22;94801.41;;;23.68;57.88
36932;BME280;22847;42.654;23.370;2022-08-11T01:11:15;94800.41;;;23.20;59.20
36932;BME280;22847;42.654;23.370;2022-08-11T01:17:04;94814.78;;;23.62;57.83
36932;BME280;22847;42.654;23.370;2022-08-11T01:28:26;94784.53;;;23.56;58.15
36932;BME280;22847;42.654;23.370;2022-08-11T01:39:50;94822.91;;;23.42;58.40
36932;BME280;22847;42.654;23.370;2022-08-11T01:48:42;94775.81;;;23.49;58.34
36932;BME280;22847;42.654;23.370;2022-08-11T01:53:59;94683.41;;;22.77;58.85
36932;BME280;22847;42.654;23.370;2022-08-11T01:56:43;94781.72;;;23.51;58.61
36932;BME280;22847;42.654;23.370;2022-08-11T01:59:17;94788.78;;;23.39;58.85
36932;BME280;22847;42.654;23.370;2022-08-11T02:07:44;94536.47;;;21.70;59.30
36932;BME280;22847;42.654;23.370;2022-08-11T02:16:09;94565.09;;;22.00;58.84
36932;BME280;22847;42.654;23.370;2022-08-11T02:18:38;94587.25;;;22.12;58.91
36932;BME280;22847;42.654;23.370;2022-08-11T02:21:50;94772.00;;;22.95;60.06
36932;BME280;22847;42.654;23.370;2022-08-11T02:24:54;94790.69;;;23.32;59.02
36932;BME280;22847;42.654;23.370;2022-08-11T02:27:28;94765.66;;;23.14;59.46
36932;BME280;22847;42.654;23.370;2022-08-11T02:30:07;94701.84;;;22.65;59.76
36932;BME280;22847;42.654;23.370;2022-08-11T02:32:57;94739.44;;;23.00;59.07
36932;BME280;22847;42.654;23.370;2022-08-11T02:36:23;94653.88;;;22.35;59.57
36932;BME280;22847;42.654;23.370;2022-08-11T02:39:10;94648.06;;;22.45;58.91
36932;BME280;22847;42.654;23.370;2022-08-11T02:47:30;94777.38;;;23.32;58.91
36932;BME280;22847;42.654;23.370;2022-08-11T02:50:24;94783.63;;;23.19;59.64
36932;BME280;22847;42.654;23.370;2022-08-11T02:52:58;94559.03;;;21.93;58.53
36932;BME280;22847;42.654;23.370;2022-08-11T03:01:39;94641.25;;;21.68;61.38
36932;BME280;22847;42.654;23.370;2022-08-11T03:04:11;94747.66;;;22.74;60.28
36932;BME280;22847;42.654;23.370;2022-08-11T03:07:04;94678.69;;;22.47;59.47
36932;BME280;22847;42.654;23.370;2022-08-11T03:12:24;94790.53;;;23.02;59.92
36932;BME280;22847;42.654;23.370;2022-08-11T03:15:28;94620.69;;;21.95;59.94
36932;BME280;22847;42.654;23.370;2022-08-11T03:18:22;94581.00;;;21.37;60.87
36932;BME280;22847;42.654;23.370;2022-08-11T03:21:15;94819.88;;;22.95;60.20
36932;BME280;22847;42.654;23.370;2022-08-11T03:26:27;94816.50;;;23.06;59.79
36932;BME280;22847;42.654;23.370;2022-08-11T03:32:03;94801.78;;;22.79;60.65
36932;BME280;22847;42.654;23.370;2022-08-11T03:34:32;94777.09;;;22.65;60.45
36932;BME280;22847;42.654;23.370;2022-08-11T03:48:46;94840.06;;;22.78;60.56
36932;BME280;22847;42.654;23.370;2022-08-11T03:51:22;94759.50;;;22.40;60.95
36932;BME280;22847;42.654;23.370;2022-08-11T03:54:07;94817.53;;;22.81;60.64
36932;BME280;22847;42.654;23.370;2022-08-11T04:10:26;94602.00;;;21.76;60.00
36932;BME280;22847;42.654;23.370;2022-08-11T04:36:33;94794.09;;;30.19;40.61
36932;BME280;22847;42.654;23.370;2022-08-11T04:54:39;94819.00;;;29.20;42.07
36932;BME280;22847;42.654;23.370;2022-08-11T05:05:19;94822.88;;;28.76;43.52
36932;BME280;22847;42.654;23.370;2022-08-11T05:13:04;94669.09;;;27.95;43.79
36932;BME280;22847;42.654;23.370;2022-08-11T05:15:52;94759.66;;;28.36;44.09
36932;BME280;22847;42.654;23.370;2022-08-11T05:18:47;94797.53;;;28.67;43.85
36932;BME280;22847;42.654;23.370;2022-08-11T05:21:32;94787.63;;;28.67;43.86
36932;BME280;22847;42.654;23.370;2022-08-11T05:24:20;94747.78;;;28.54;43.23
36932;BME280;22847;42.654;23.370;2022-08-11T05:27:07;94799.41;;;28.66;44.29
36932;BME280;22847;42.654;23.370;2022-08-11T05:30:04;94795.34;;;28.86;43.59
36932;BME280;22847;42.654;23.370;2022-08-11T05:32:57;94618.34;;;27.88;43.24
36932;BME280;22847;42.654;23.370;2022-08-11T05:35:44;94799.88;;;28.85;43.43
36932;BME280;22847;42.654;23.370;2022-08-11T05:38:23;94795.31;;;28.59;43.90
36932;BME280;22847;42.654;23.370;2022-08-11T05:41:10;94777.94;;;28.39;44.12
36932;BME280;22847;42.654;23.370;2022-08-11T05:43:58;94797.25;;;28.42;44.73
36932;BME280;22847;42.654;23.370;2022-08-11T05:46:43;94681.03;;;28.09;43.98
36932;BME280;22847;42.654;23.370;2022-08-11T05:49:30;94784.16;;;28.99;43.42
36932;BME280;22847;42.654;23.370;2022-08-11T05:52:16;94819.16;;;29.41;42.17
36932;BME280;22847;42.654;23.370;2022-08-11T05:55:04;94813.69;;;29.67;41.78
36932;BME280;22847;42.654;23.370;2022-08-11T05:57:54;94764.47;;;29.57;41.78
36932;BME280;22847;42.654;23.370;2022-08-11T06:00:21;94762.84;;;29.56;41.92
36932;BME280;22847;42.654;23.370;2022-08-11T06:02:57;94772.81;;;29.60;41.75
36932;BME280;22847;42.654;23.370;2022-08-11T06:05:32;94738.81;;;29.34;41.43
36932;BME280;22847;42.654;23.370;2022-08-11T06:07:58;94637.22;;;28.89;41.27
36932;BME280;22847;42.654;23.370;2022-08-11T06:10:36;94795.44;;;29.69;41.63
36932;BME280;22847;42.654;23.370;2022-08-11T06:13:03;94756.19;;;29.68;41.38
36932;BME280;22847;42.654;23.370;2022-08-11T06:15:32;94790.53;;;29.56;42.36
36932;BME280;22847;42.654;23.370;2022-08-11T06:17:59;94801.13;;;29.78;41.40
36932;BME280;22847;42.654;23.370;2022-08-11T06:20:26;94764.88;;;29.86;40.92
36932;BME280;22847;42.654;23.370;2022-08-11T06:23:01;94661.69;;;29.35;41.08
36932;BME280;22847;42.654;23.370;2022-08-11T06:25:35;94779.88;;;30.29;40.33
36932;BME280;22847;42.654;23.370;2022-08-11T06:28:05;94606.09;;;29.35;40.75
36932;BME280;22847;42.654;23.370;2022-08-11T06:30:38;94731.41;;;30.13;39.87
36932;BME280;22847;42.654;23.370;2022-08-11T06:33:12;94773.25;;;30.51;39.56
36932;BME280;22847;42.654;23.370;2022-08-11T06:38:49;94621.00;;;29.63;39.22
36932;BME280;22847;42.654;23.370;2022-08-11T06:41:31;94778.22;;;30.07;38.88
36932;BME280;22847;42.654;23.370;2022-08-11T06:46:39;94818.41;;;30.44;38.16
36932;BME280;22847;42.654;23.370;2022-08-11T06:49:09;94755.72;;;29.82;40.19
36932;BME280;22847;42.654;23.370;2022-08-11T06:51:59;94798.75;;;29.87;40.30
36932;BME280;22847;42.654;23.370;2022-08-11T06:54:29;94460.16;;;28.15;39.70
36932;BME280;22847;42.654;23.370;2022-08-11T06:56:57;94753.16;;;30.02;39.15
36932;BME280;22847;42.654;23.370;2022-08-11T06:59:43;94777.09;;;30.08;38.54
36932;BME280;22847;42.654;23.370;2022-08-11T07:02:36;94739.13;;;29.95;39.29
36932;BME280;22847;42.654;23.370;2022-08-11T07:05:07;94776.44;;;30.38;38.83
36932;BME280;22847;42.654;23.370;2022-08-11T07:13:39;94756.91;;;30.93;35.85
36932;BME280;22847;42.654;23.370;2022-08-11T07:16:30;94786.81;;;31.17;36.09
36932;BME280;22847;42.654;23.370;2022-08-11T07:19:02;94777.13;;;31.11;35.82
36932;BME280;22847;42.654;23.370;2022-08-11T07:21:47;94785.22;;;31.01;35.43
36932;BME280;22847;42.654;23.370;2022-08-11T07:24:40;94755.56;;;31.16;36.60
36932;BME280;22847;42.654;23.370;2022-08-11T07:27:32;94753.41;;;31.03;34.10
36932;BME280;22847;42.654;23.370;2022-08-11T07:30:18;94528.34;;;30.21;33.64
36932;BME280;22847;42.654;23.370;2022-08-11T07:32:50;94616.28;;;30.96;33.96
36932;BME280;22847;42.654;23.370;2022-08-11T07:35:19;94788.41;;;30.98;34.89
36932;BME280;22847;42.654;23.370;2022-08-11T07:37:49;94644.88;;;30.52;34.61
36932;BME280;22847;42.654;23.370;2022-08-11T07:40:24;94756.09;;;31.18;35.81
36932;BME280;22847;42.654;23.370;2022-08-11T07:42:52;94759.88;;;31.22;35.45
36932;BME280;22847;42.654;23.370;2022-08-11T07:45:18;94614.72;;;30.70;34.70
36932;BME280;22847;42.654;23.370;2022-08-11T07:48:03;94758.78;;;30.98;35.43
36932;BME280;22847;42.654;23.370;2022-08-11T07:50:48;94644.06;;;30.51;34.84
36932;BME280;22847;42.654;23.370;2022-08-11T07:53:32;94760.94;;;31.52;35.29
36932;BME280;22847;42.654;23.370;2022-08-11T07:56:01;94771.66;;;31.87;35.05
36932;BME280;22847;42.654;23.370;2022-08-11T07:58:29;94713.50;;;31.35;34.55
36932;BME280;22847;42.654;23.370;2022-08-11T08:01:17;94766.03;;;31.48;34.00
36932;BME280;22847;42.654;23.370;2022-08-11T08:04:04;94739.34;;;31.57;33.41
36932;BME280;22847;42.654;23.370;2022-08-11T08:06:49;94746.84;;;31.85;32.41
36932;BME280;22847;42.654;23.370;2022-08-11T08:09:34;94764.16;;;31.69;31.96
36932;BME280;22847;42.654;23.370;2022-08-11T08:12:23;94763.09;;;32.39;32.00
36932;BME280;22847;42.654;23.370;2022-08-11T08:15:09;94604.03;;;31.60;32.35
36932;BME280;22847;42.654;23.370;2022-08-11T08:17:56;94749.56;;;32.88;30.90
36932;BME280;22847;42.654;23.370;2022-08-11T08:20:31;94749.34;;;32.85;31.17
36932;BME280;22847;42.654;23.370;2022-08-11T08:23:00;94749.16;;;32.71;30.94
36932;BME280;22847;42.654;23.370;2022-08-11T08:25:31;94633.25;;;31.92;31.18
36932;BME280;22847;42.654;23.370;2022-08-11T08:27:58;94548.25;;;31.45;31.06
36932;BME280;22847;42.654;23.370;2022-08-11T08:30:26;94743.81;;;33.00;31.23
36932;BME280;22847;42.654;23.370;2022-08-11T08:33:16;94718.69;;;32.99;30.94
36932;BME280;22847;42.654;23.370;2022-08-11T08:35:43;94733.81;;;33.00;31.46
36932;BME280;22847;42.654;23.370;2022-08-11T08:38:10;94725.19;;;32.98;31.14
36932;BME280;22847;42.654;23.370;2022-08-11T08:40:39;94742.19;;;33.33;31.56
36932;BME280;22847;42.654;23.370;2022-08-11T08:43:08;94759.69;;;33.45;31.36
36932;BME280;22847;42.654;23.370;2022-08-11T08:45:36;94738.47;;;32.95;31.77
36932;BME280;22847;42.654;23.370;2022-08-11T08:48:07;94583.53;;;31.49;31.13
36932;BME280;22847;42.654;23.370;2022-08-11T08:50:35;94741.19;;;31.81;32.29
36932;BME280;22847;42.654;23.370;2022-08-11T08:53:27;94557.88;;;30.87;32.59
36932;BME280;22847;42.654;23.370;2022-08-11T08:55:59;94738.34;;;32.71;32.09
36932;BME280;22847;42.654;23.370;2022-08-11T08:58:25;94711.13;;;32.18;32.81
36932;BME280;22847;42.654;23.370;2022-08-11T09:00:53;94640.28;;;31.93;31.46
36932;BME280;22847;42.654;23.370;2022-08-11T09:03:19;94723.34;;;32.50;31.86
36932;BME280;22847;42.654;23.370;2022-08-11T09:05:46;94706.47;;;33.07;31.89
36932;BME280;22847;42.654;23.370;2022-08-11T09:08:13;94680.22;;;32.79;30.93
36932;BME280;22847;42.654;23.370;2022-08-11T09:10:41;94532.88;;;31.45;31.37
36932;BME280;22847;42.654;23.370;2022-08-11T09:13:07;94579.72;;;31.65;32.59
36932;BME280;22847;42.654;23.370;2022-08-11T09:15:33;94680.81;;;31.67;33.53
36932;BME280;22847;42.654;23.370;2022-08-11T09:18:02;94740.63;;;31.84;33.57
36932;BME280;22847;42.654;23.370;2022-08-11T09:20:35;94731.31;;;31.21;34.19
36932;BME280;22847;42.654;23.370;2022-08-11T09:23:06;94720.53;;;30.66;34.63
36932;BME280;22847;42.654;23.370;2022-08-11T09:25:54;94546.38;;;29.23;35.20
36932;BME280;22847;42.654;23.370;2022-08-11T09:28:41;94725.50;;;30.17;35.71
36932;BME280;22847;42.654;23.370;2022-08-11T09:31:07;94719.72;;;30.85;34.89
36932;BME280;22847;42.654;23.370;2022-08-11T09:33:35;94695.22;;;30.87;34.18
36932;BME280;22847;42.654;23.370;2022-08-11T09:36:02;94517.31;;;30.53;33.62
36932;BME280;22847;42.654;23.370;2022-08-11T09:38:51;94752.44;;;32.04;32.93
36932;BME280;22847;42.654;23.370;2022-08-11T09:41:37;94715.47;;;32.09;32.76
36932;BME280;22847;42.654;23.370;2022-08-11T09:44:05;94695.09;;;32.37;32.70
36932;BME280;22847;42.654;23.370;2022-08-11T09:46:50;94503.19;;;30.86;32.91
36932;BME280;22847;42.654;23.370;2022-08-11T09:49:18;94700.09;;;32.15;32.51
36932;BME280;22847;42.654;23.370;2022-08-11T09:51:46;94718.84;;;32.35;31.86
36932;BME280;22847;42.654;23.370;2022-08-11T09:54:13;94701.59;;;31.62;32.94
36932;BME280;22847;42.654;23.370;2022-08-11T09:56:41;94670.16;;;30.96;32.74
36932;BME280;22847;42.654;23.370;2022-08-11T09:59:25;94695.19;;;31.32;34.87
36932;BME280;22847;42.654;23.370;2022-08-11T10:01:59;94693.06;;;31.04;34.78
36932;BME280;22847;42.654;23.370;2022-08-11T10:04:37;94321.72;;;28.61;35.18
36932;BME280;22847;42.654;23.370;2022-08-11T10:07:04;94679.59;;;31.09;34.89
36932;BME280;22847;42.654;23.370;2022-08-11T10:09:37;94686.31;;;31.27;34.38
36932;BME280;22847;42.654;23.370;2022-08-11T10:12:10;94566.47;;;31.04;35.11
36932;BME280;22847;42.654;23.370;2022-08-11T10:14:47;94671.69;;;31.48;33.92
36932;BME280;22847;42.654;23.370;2022-08-11T10:17:35;94678.50;;;30.54;35.21
36932;BME280;22847;42.654;23.370;2022-08-11T10:20:03;94674.47;;;30.77;35.81
36932;BME280;22847;42.654;23.370;2022-08-11T10:22:33;94671.50;;;31.14;35.41
36932;BME280;22847;42.654;23.370;2022-08-11T10:25:19;94659.09;;;31.33;34.44
36932;BME280;22847;42.654;23.370;2022-08-11T10:28:06;94679.75;;;31.53;35.06
36932;BME280;22847;42.654;23.370;2022-08-11T10:30:32;94681.00;;;31.91;34.07
36932;BME280;22847;42.654;23.370;2022-08-11T10:33:17;94676.06;;;32.08;33.14
36932;BME280;22847;42.654;23.370;2022-08-11T10:36:02;94692.28;;;31.98;33.45
36932;BME280;22847;42.654;23.370;2022-08-11T10:38:30;94684.72;;;32.05;33.53
36932;BME280;22847;42.654;23.370;2022-08-11T10:40:56;94506.25;;;30.54;33.62
36932;BME280;22847;42.654;23.370;2022-08-11T10:43:41;94681.22;;;30.65;35.25
36932;BME280;22847;42.654;23.370;2022-08-11T10:46:09;94676.63;;;30.80;35.13
36932;BME280;22847;42.654;23.370;2022-08-11T10:48:55;94675.81;;;31.15;35.14
36932;BME280;22847;42.654;23.370;2022-08-11T10:51:23;94475.59;;;29.95;34.24
36932;BME280;22847;42.654;23.370;2022-08-11T10:54:08;94665.06;;;31.10;34.88
36932;BME280;22847;42.654;23.370;2022-08-11T10:56:53;94606.34;;;30.92;34.40
36932;BME280;22847;42.654;23.370;2022-08-11T10:59:38;94662.81;;;31.48;33.79
36932;BME280;22847;42.654;23.370;2022-08-11T11:02:08;94654.41;;;31.69;33.47
36932;BME280;22847;42.654;23.370;2022-08-11T11:07:21;94558.19;;;30.70;34.60
36932;BME280;22847;42.654;23.370;2022-08-11T11:09:56;94638.59;;;31.37;32.57
36932;BME280;22847;42.654;23.370;2022-08-11T11:12:30;94641.88;;;31.09;33.65
36932;BME280;22847;42.654;23.370;2022-08-11T11:15:19;94450.59;;;30.20;33.32
36932;BME280;22847;42.654;23.370;2022-08-11T11:18:06;94666.34;;;31.33;32.97
36932;BME280;22847;42.654;23.370;2022-08-11T11:20:40;94650.53;;;31.06;33.15
36932;BME280;22847;42.654;23.370;2022-08-11T11:26:36;94682.03;;;31.06;34.87
36932;BME280;22847;42.654;23.370;2022-08-11T11:29:16;94677.97;;;30.73;32.83
36932;BME280;22847;42.654;23.370;2022-08-11T11:31:58;94656.72;;;30.51;34.16
36932;BME280;22847;42.654;23.370;2022-08-11T11:37:33;94649.16;;;31.09;32.82
36932;BME280;22847;42.654;23.370;2022-08-11T11:40:07;94655.34;;;31.14;32.66
36932;BME280;22847;42.654;23.370;2022-08-11T11:42:41;94663.38;;;31.34;33.08
36932;BME280;22847;42.654;23.370;2022-08-11T11:45:08;94458.66;;;30.14;32.78
36932;BME280;22847;42.654;23.370;2022-08-11T11:47:36;94640.81;;;31.10;33.92
36932;BME280;22847;42.654;23.370;2022-08-11T11:50:04;94687.38;;;31.26;33.39
36932;BME280;22847;42.654;23.370;2022-08-11T11:52:31;94601.47;;;30.99;34.34
36932;BME280;22847;42.654;23.370;2022-08-11T11:54:58;94616.31;;;31.02;34.83
36932;BME280;22847;42.654;23.370;2022-08-11T11:57:25;94666.41;;;30.97;35.64
36932;BME280;22847;42.654;23.370;2022-08-11T12:00:10;94437.06;;;27.72;39.01
36932;BME280;22847;42.654;23.370;2022-08-11T12:02:57;94593.31;;;28.68;38.44
36932;BME280;22847;42.654;23.370;2022-08-11T12:05:25;94578.94;;;28.48;39.01
36932;BME280;22847;42.654;23.370;2022-08-11T12:07:53;94616.31;;;29.38;38.42
36932;BME280;22847;42.654;23.370;2022-08-11T12:10:38;94465.38;;;28.37;38.53
36932;BME280;22847;42.654;23.370;2022-08-11T12:13:04;94586.72;;;29.33;38.81
36932;BME280;22847;42.654;23.370;2022-08-11T12:15:49;94628.53;;;28.72;39.62
36932;BME280;22847;42.654;23.370;2022-08-11T12:18:15;94594.03;;;28.96;39.15
36932;BME280;22847;42.654;23.370;2022-08-11T12:20:42;94424.22;;;28.11;37.94
36932;BME280;22847;42.654;23.370;2022-08-11T12:23:09;94636.88;;;29.17;38.62
36932;BME280;22847;42.654;23.370;2022-08-11T12:25:54;94616.63;;;29.52;38.01
36932;BME280;22847;42.654;23.370;2022-08-11T12:28:38;94621.81;;;29.74;38.70
36932;BME280;22847;42.654;23.370;2022-08-11T12:31:05;94614.81;;;29.62;37.90
36932;BME280;22847;42.654;23.370;2022-08-11T12:33:35;94580.88;;;29.46;38.62
36932;BME280;22847;42.654;23.370;2022-08-11T12:36:00;94570.19;;;29.09;38.42
36932;BME280;22847;42.654;23.370;2022-08-11T12:38:26;94420.81;;;27.89;39.76
36932;BME280;22847;42.654;23.370;2022-08-11T12:40:53;94626.13;;;29.17;39.77
36932;BME280;22847;42.654;23.370;2022-08-11T12:43:42;94625.28;;;29.12;39.77
36932;BME280;22847;42.654;23.370;2022-08-11T12:46:33;94637.03;;;29.01;39.52
36932;BME280;22847;42.654;23.370;2022-08-11T12:49:06;94598.13;;;28.66;40.45
36932;BME280;22847;42.654;23.370;2022-08-11T12:51:53;94654.16;;;29.32;39.82
36932;BME280;22847;42.654;23.370;2022-08-11T12:57:04;94628.56;;;29.76;38.53
36932;BME280;22847;42.654;23.370;2022-08-11T12:59:49;94626.81;;;29.50;39.24
36932;BME280;22847;42.654;23.370;2022-08-11T13:02:33;94431.09;;;28.02;39.37
36932;BME280;22847;42.654;23.370;2022-08-11T13:05:17;94646.13;;;29.37;40.05
36932;BME280;22847;42.654;23.370;2022-08-11T13:07:46;94635.75;;;29.08;40.24
36932;BME280;22847;42.654;23.370;2022-08-11T13:10:13;94425.13;;;27.58;41.08
36932;BME280;22847;42.654;23.370;2022-08-11T13:13:01;94617.22;;;27.58;43.16
36932;BME280;22847;42.654;23.370;2022-08-11T13:15:27;94546.47;;;27.10;43.91
36932;BME280;22847;42.654;23.370;2022-08-11T13:17:54;94636.56;;;27.86;42.92
36932;BME280;22847;42.654;23.370;2022-08-11T13:20:22;94633.66;;;28.15;42.77
36932;BME280;22847;42.654;23.370;2022-08-11T13:22:50;94703.53;;;28.30;42.44
36932;BME280;22847;42.654;23.370;2022-08-11T13:25:18;94490.34;;;27.42;41.97
36932;BME280;22847;42.654;23.370;2022-08-11T13:27:46;94635.19;;;28.37;41.73
36932;BME280;22847;42.654;23.370;2022-08-11T13:30:13;94618.31;;;28.42;41.15
36932;BME280;22847;42.654;23.370;2022-08-11T13:32:58;94589.91;;;28.41;40.89
36932;BME280;22847;42.654;23.370;2022-08-11T13:35:25;94653.47;;;28.41;42.47
36932;BME280;22847;42.654;23.370;2022-08-11T13:37:51;94512.16;;;26.85;42.91
36932;BME280;22847;42.654;23.370;2022-08-11T13:40:20;94587.44;;;27.54;42.41
36932;BME280;22847;42.654;23.370;2022-08-11T13:42:47;94618.41;;;28.20;41.22
36932;BME280;22847;42.654;23.370;2022-08-11T13:45:14;94610.44;;;28.62;40.12
36932;BME280;22847;42.654;23.370;2022-08-11T13:47:40;94454.84;;;28.20;38.87
36932;BME280;22847;42.654;23.370;2022-08-11T13:50:07;94617.28;;;29.27;38.22
36932;BME280;22847;42.654;23.370;2022-08-11T13:52:35;94472.72;;;28.52;37.68
36932;BME280;22847;42.654;23.370;2022-08-11T13:55:04;94518.31;;;28.94;37.94
36932;BME280;22847;42.654;23.370;2022-08-11T13:57:32;94406.84;;;28.19;37.41
36932;BME280;22847;42.654;23.370;2022-08-11T13:59:58;94601.84;;;29.54;38.12
36932;BME280;22847;42.654;23.370;2022-08-11T14:02:36;94586.50;;;29.50;36.26
36932;BME280;22847;42.654;23.370;2022-08-11T14:05:15;94626.09;;;28.70;38.57
36932;BME280;22847;42.654;23.370;2022-08-11T14:07:52;94606.00;;;28.41;37.89
36932;BME280;22847;42.654;23.370;2022-08-11T14:10:21;94583.25;;;27.90;39.09
36932;BME280;22847;42.654;23.370;2022-08-11T14:13:00;94611.38;;;28.41;38.20
36932;BME280;22847;42.654;23.370;2022-08-11T14:15:45;94578.41;;;28.14;39.59
36932;BME280;22847;42.654;23.370;2022-08-11T14:20:42;94536.28;;;28.88;36.81
36932;BME280;22847;42.654;23.370;2022-08-11T14:23:34;94606.72;;;29.67;37.38
36932;BME280;22847;42.654;23.370;2022-08-11T14:26:02;94498.56;;;29.25;36.17
36932;BME280;22847;42.654;23.370;2022-08-11T14:28:46;94425.38;;;28.82;34.91
36932;BME280;22847;42.654;23.370;2022-08-11T14:31:13;94593.41;;;29.98;36.46
36932;BME280;22847;42.654;23.370;2022-08-11T14:33:40;94539.53;;;29.67;35.38
36932;BME280;22847;42.654;23.370;2022-08-11T14:36:08;94448.00;;;29.02;35.71
36932;BME280;22847;42.654;23.370;2022-08-11T14:38:36;94606.06;;;30.18;34.86
36932;BME280;22847;42.654;23.370;2022-08-11T14:41:02;94599.31;;;30.05;33.32
36932;BME280;22847;42.654;23.370;2022-08-11T14:43:47;94595.56;;;30.11;33.11
36932;BME280;22847;42.654;23.370;2022-08-11T14:46:31;94591.50;;;29.93;34.36
36932;BME280;22847;42.654;23.370;2022-08-11T14:49:16;94555.47;;;29.12;35.17
36932;BME280;22847;42.654;23.370;2022-08-11T14:51:42;94564.72;;;29.36;34.77
36932;BME280;22847;42.654;23.370;2022-08-11T14:54:08;94589.56;;;29.11;35.27
36932;BME280;22847;42.654;23.370;2022-08-11T14:56:53;94460.69;;;28.54;35.48
36932;BME280;22847;42.654;23.370;2022-08-11T14:59:20;94586.50;;;29.50;36.65
36932;BME280;22847;42.654;23.370;2022-08-11T15:01:46;94415.34;;;28.58;36.09
36932;BME280;22847;42.654;23.370;2022-08-11T15:04:30;94580.94;;;29.77;37.35
36932;BME280;22847;42.654;23.370;2022-08-11T15:06:56;94480.00;;;29.18;36.43
36932;BME280;22847;42.654;23.370;2022-08-11T15:09:22;94523.91;;;29.54;36.51
36932;BME280;22847;42.654;23.370;2022-08-11T15:11:48;94591.78;;;29.97;37.30
36932;BME280;22847;42.654;23.370;2022-08-11T15:14:33;94409.34;;;29.03;36.03
36932;BME280;22847;42.654;23.370;2022-08-11T15:17:18;94602.00;;;29.90;36.17
36932;BME280;22847;42.654;23.370;2022-08-11T15:19:45;94547.16;;;30.01;34.82
36932;BME280;22847;42.654;23.370;2022-08-11T15:22:31;94577.00;;;30.20;36.58
36932;BME280;22847;42.654;23.370;2022-08-11T15:25:15;94520.94;;;29.36;37.14
36932;BME280;22847;42.654;23.370;2022-08-11T15:27:42;94525.69;;;29.23;38.41
36932;BME280;22847;42.654;23.370;2022-08-11T15:30:29;94576.56;;;29.40;38.15
36932;BME280;22847;42.654;23.370;2022-08-11T15:33:16;94574.91;;;29.34;38.90
36932;BME280;22847;42.654;23.370;2022-08-11T15:36:02;94596.53;;;29.07;38.90
36932;BME280;22847;42.654;23.370;2022-08-11T15:38:51;94367.91;;;27.74;38.46
36932;BME280;22847;42.654;23.370;2022-08-11T15:41:19;94551.78;;;28.39;39.78
36932;BME280;22847;42.654;23.370;2022-08-11T15:44:09;94528.09;;;28.26;38.79
36932;BME280;22847;42.654;23.370;2022-08-11T15:46:59;94294.59;;;26.58;40.72
36932;BME280;22847;42.654;23.370;2022-08-11T15:49:30;94556.78;;;28.25;39.79
36932;BME280;22847;42.654;23.370;2022-08-11T15:52:02;94566.00;;;28.39;38.84
36932;BME280;22847;42.654;23.370;2022-08-11T15:54:31;94554.47;;;28.39;39.84
36932;BME280;22847;42.654;23.370;2022-08-11T15:57:00;94579.09;;;28.04;40.63
36932;BME280;22847;42.654;23.370;2022-08-11T15:59:27;94584.22;;;28.37;39.61
36932;BME280;22847;42.654;23.370;2022-08-11T16:02:16;94399.38;;;27.25;39.50
36932;BME280;22847;42.654;23.370;2022-08-11T16:05:07;94501.34;;;27.72;39.01
36932;BME280;22847;42.654;23.370;2022-08-11T16:07:34;94568.84;;;28.23;39.87
36932;BME280;22847;42.654;23.370;2022-08-11T16:10:06;94581.22;;;28.29;41.02
36932;BME280;22847;42.654;23.370;2022-08-11T16:12:45;94578.28;;;28.30;40.65
36932;BME280;22847;42.654;23.370;2022-08-11T16:15:51;94577.38;;;28.20;40.68
36932;BME280;22847;42.654;23.370;2022-08-11T16:18:52;94609.06;;;28.23;39.05
36932;BME280;22847;42.654;23.370;2022-08-11T16:21:31;94577.28;;;28.10;41.31
36932;BME280;22847;42.654;23.370;2022-08-11T16:23:59;94553.28;;;27.44;40.45
36932;BME280;22847;42.654;23.370;2022-08-11T16:26:26;94403.13;;;26.54;40.74
36932;BME280;22847;42.654;23.370;2022-08-11T16:28:55;94576.16;;;27.52;41.82
36932;BME280;22847;42.654;23.370;2022-08-11T16:31:23;94592.41;;;27.45;40.80
36932;BME280;22847;42.654;23.370;2022-08-11T16:33:51;94590.41;;;27.36;41.09
36932;BME280;22847;42.654;23.370;2022-08-11T16:36:18;94596.94;;;27.45;40.89
36932;BME280;22847;42.654;23.370;2022-08-11T16:39:04;94581.34;;;27.59;40.50
36932;BME280;22847;42.654;23.370;2022-08-11T16:41:33;94578.22;;;27.23;40.71